KFCS/FCS METAR and TAF weather

Enter ICAO airport designator
Station Type Date Time Source
KFCS METAR 2021/04/17 02:58 UTC NOAA

KFCS 170258Z AUTO 01014KT 10SM SCT043 OVC080 00/M05 A3018 RMK AO2 SLP274 T00011055 52018 $


Station Type Date Time Source
KFCS Decoded METAR 2021/04/17 02:58 UTC NOAA

Fort Carson, CO, United States (KFCS) 38-42N 104-46W 1789M
Apr 16, 2021 - 10:58 PM EDT / 2021.04.17 0258 UTC
Wind: from the N (010 degrees) at 16 MPH (14 KT):0
Visibility: 10 mile(s):0
Sky conditions: overcast
Temperature: 32.2 F (0.1 C)
Windchill: 21 F (-6 C):1
Dew Point: 22.1 F (-5.5 C)
Relative Humidity: 65%
Pressure (altimeter): 30.18 in. Hg (1022 hPa)
Pressure tendency: 0.05 inches (1.8 hPa) higher than three hours ago
ob: KFCS 170258Z AUTO 01014KT 10SM SCT043 OVC080 00/M05 A3018 RMK AO2 SLP274 T00011055 52018
cycle: 3

Station Type Date Time Source
KFCS TAF 2021/04/17 01:50 UTC NOAA

TAF
AMD KFCS 170128Z 1701/1803 35006KT 9999 BKN050 QNH3016INS
TEMPO 1701/1709 6000 -SHSN 610509
BECMG 1708/1709 VRB06KT 9999 BKN030 OVC060 QNH3018INS
BECMG 1710/1711 35012KT 9999 BKN020 QNH3018INS
BECMG 1715/1716 33012KT 9999 OVC050 QNH3018INS
BECMG 1723/1724 VRB06KT 9999 BKN030 QNH3019INS TX04/1721Z TNM03/1713Z

Example: see airport list